Terminal Aerodrome Forecast
Issued by NWS Wilmington, OH

Home | Current Version | Previous Version | Text Only | Print | Product List | Glossary On
Versions: 1 2 3 4 5 6 7 8 9 10 11 12 13 14 15 16 17 18 19 20 21
000
FTUS41 KILN 192327
TAFCVG
TAF
KCVG 192327Z 2000/2106 19005KT P6SM VCSH BKN040
     FM200200 20003KT P6SM SCT250
     FM200700 VRB03KT 5SM BR SCT015
     FM201000 VRB03KT 2SM BR BKN015
     FM201300 VRB03KT P6SM BKN015
     FM201600 24006KT P6SM SCT050
     FM210000 VRB03KT P6SM SCT100=

USA.gov is the U.S. government's official web portal to all federal, state and local government web resources and services.